ADDS METAR Data INFO
IDs: Format: Raw Decoded Include TAF

Data at: 1356 UTC 17 Dec 2017

PAPO 171256Z AUTO 05016KT 10SM FEW110 M11/M13 A2956 RMK AO2 PK WND 06027/1158 SLP008 T11061133 FZRANO
PAPO 171156Z AUTO 06024KT 8SM FEW110 M11/M13 A2953 RMK AO2 PK WND 06027/1156 SLP001 T11061133 11100 21133 51016 FZRANO
PAPO 171056Z AUTO 07015KT 10SM CLR M11/M13 A2952 RMK AO2 SLP997 T11061133 FZRANO
PAPO 170956Z AUTO 06011KT 10SM CLR M12/M14 A2951 RMK AO2 SLP991 T11171144 FZRANO
PAPO 170856Z AUTO 06017KT 10SM CLR M13/M15 A2949 RMK AO2 SLP985 T11281150 410781133 53022 FZRANO
PAPO 170756Z AUTO 08013KT 10SM CLR M13/M16 A2946 RMK AO2 SLP975 T11331156 FZRANO
PAPO 170656Z AUTO 00000KT 10SM CLR M13/M16 A2944 RMK AO2 SLP967 T11331156 FZRANO
PAPO 170556Z AUTO 09007KT 10SM CLR M12/M14 A2942 RMK AO2 SLP963 T11221144 11106 21122 53015 FZRANO
PAPO 170456Z AUTO 04015KT 10SM CLR M11/M13 A2940 RMK AO2 SLP957 T11111133 FZRANO
PAPO 170356Z AUTO 04020KT 10SM CLR M11/M13 A2938 RMK AO2 PK WND 04026/0335 SLP950 T11111133 FZRANO
PAPO 170256Z AUTO 05016KT 10SM CLR M11/M13 A2938 RMK AO2 SLP948 T11111128 51010 FZRANO
PAPO 170156Z AUTO 06013KT 10SM CLR M11/M13 A2938 RMK AO2 SLP947 T11111133 FZRANO
PAPO 170056Z AUTO 03021KT 10SM CLR M12/M14 A2935 RMK AO2 PK WND 04029/0001 SLP940 T11171139 FZRANO
PAPO 162356Z AUTO 04024KT 10SM CLR M11/M13 A2935 RMK AO2 PK WND 03028/2313 SLP938 60000 T11111133 11111 21122 53008 FZRANO
PAPO 162256Z AUTO 04019G23KT 10SM CLR M12/M13 A2934 RMK AO2 PK WND 03027/2245 SLP935 T11171133 FZRANO
PAPO 162156Z AUTO 06019G24KT 10SM CLR M12/M14 A2933 RMK AO2 SLP932 T11171139 FZRANO
PAPO 162056Z AUTO 07015KT 10SM CLR M12/M14 A2933 RMK AO2 SLP930 60000 T11171139 53007 FZRANO
PAPO 161956Z AUTO 04019KT 10SM CLR M11/M13 A2932 RMK AO2 PK WND 03033/1906 SNE12 SLP930 P0000 T11111128 FZRANO
PAPO 161856Z AUTO 04030G33KT 4SM -SN BR CLR M12/M14 A2930 RMK AO2 PK WND 04040/1816 SLP921 P0000 T11171139 FZRANO
PAPO 161838Z AUTO 04028G36KT 4SM -SN BR CLR M12/M14 A2930 RMK AO2 PK WND 04040/1816 P0000 FZRANO
PAPO 161812Z AUTO 05033G39KT 2SM -SN BR CLR M12/M14 A2930 RMK AO2 PK WND 04039/1812 P0000 FZRANO
PAPO 161735Z AUTO 05030G38KT 2SM -SN BR CLR M11/M13 A2930 RMK AO2 PK WND 04039/1715 P0000 FZRANO
PAPO 161713Z AUTO 04030G35KT 3SM -SN BR CLR M11/M13 A2930 RMK AO2 PK WND 04035/1710 P0000 FZRANO
PAPO 161656Z AUTO 05027G38KT 2SM -SN BR CLR M11/M13 A2931 RMK AO2 PK WND 04038/1650 SLP925 P0000 T11111133 FZRANO
PAPO 161651Z AUTO 04033G38KT 1 3/4SM -SN BR CLR M11/M13 A2929 RMK AO2 PK WND 04038/1650 VIS 1 1/4V2 1/2 P0000 FZRANO
PAPO 161642Z AUTO 05024G29KT 3SM -SN BR CLR M11/M13 A2931 RMK AO2 PK WND 04037/1627 P0000 FZRANO
PAPO 161632Z AUTO 04030G37KT 2 1/2SM -SN BR CLR M11/M13 A2932 RMK AO2 PK WND 04037/1627 VIS 1 3/4V3 P0000 FZRANO
PAPO 161622Z AUTO 03033G36KT 1 3/4SM -SN BR CLR M11/M13 A2929 RMK AO2 PK WND 04037/1621 P0000 FZRANO
PAPO 161556Z AUTO 03027G33KT 4SM -SN BR CLR M11/M13 A2930 RMK AO2 PK WND 03033/1554 SLP923 P0000 T11061128 FZRANO
PAPO 161456Z AUTO 04029G34KT 4SM -SN BR CLR M11/M13 A2931 RMK AO2 PK WND 04035/1414 SLP925 P0000 60000 T11061128 58007 FZRANO
PAPO 161410Z AUTO 04027G32KT 4SM -SN BR CLR M11/M13 A2933 RMK AO2 PK WND 04032/1407 P0000 FZRANO
PAPO 161356Z AUTO 05028G33KT 2 1/2SM -SN BR CLR M11/M13 A2933 RMK AO2 PK WND 05033/1356 SNE1258B52 SLP933 P0000 T11111133 FZRANO
PAPO 161256Z AUTO 04025KT 5SM -SN BR CLR M10/M12 A2934 RMK AO2 PK WND 04034/1235 SNB08 SLP935 P0000 T11001117 FZRANO
PAPO 161156Z AUTO 04027KT 5SM BR CLR M09/M12 A2933 RMK AO2 PK WND 03036/1133 SNB29E51 SLP932 P0000 60000 T10941117 11067 21106 56011 FZRANO
PAPO 161145Z AUTO 04026G31KT 4SM -SN BR CLR M09/M12 A2932 RMK AO2 PK WND 03036/1133 SNB29 P0000 FZRANO
PAPO 161138Z AUTO 04030G36KT 2 1/2SM -SN BR CLR M09/M12 A2931 RMK AO2 PK WND 03036/1133 VIS 2V4 SNB29 P0000 FZRANO
PAPO 161056Z AUTO 04026G30KT 7SM CLR M09/M11 A2933 RMK AO2 PK WND 04031/1023 SNB23E35 SLP932 P0000 T10891111 FZRANO
PAPO 160956Z AUTO 03023G28KT 9SM CLR M09/M11 A2935 RMK AO2 PK WND 05030/0926 SNB17E44 SLP937 P0000 T10891111 FZRANO
PAPO 160856Z AUTO 05021G24KT 9SM CLR M08/M10 A2936 RMK AO2 PK WND 04027/0844 SLP943 T10781100 410281106 56018 FZRANO
PAPO 160756Z AUTO 06007KT 10SM CLR M09/M11 A2938 RMK AO2 SLP949 T10941111 FZRANO
PAPO 160556Z AUTO 06008KT 10SM CLR M07/M09 A2942 RMK AO2 SLP961 60000 T10721089 11067 21106 56015 FZRANO
PAPO 160456Z AUTO 06007KT 10SM CLR M11/M13 A2942 RMK AO2 SLP964 T11061128 FZRANO
PAPO 160356Z AUTO 05009KT 10SM CLR M08/M09 A2944 RMK AO2 SLP969 T10781094 FZRANO
PAPO 160256Z AUTO 03010KT 10SM CLR M07/M09 A2946 RMK AO2 SLP976 60000 T10721089 56022 FZRANO